Time;durP1;ratioP1;P1;durP2;ratioP2;P2;SDS_P1;SDS_P2;PMS_P1;PMS_P2;Temp;Humidity;BMP_temperature;BMP_pressure;BME280_temperature;BME280_humidity;BME280_pressure;Samples;Min_cycle;Max_cycle;Signal;HPM_P1;HPM_P2
2022/04/29 00:01:37;;;;;;;;;;;;;;;9.05;55.87;97475.88;5096189;28;19956;-74
2022/04/29 00:04:04;;;;;;;;;;;;;;;9.01;55.99;97475.47;5078302;28;19979;-74
2022/04/29 00:06:30;;;;;;;;;;;;;;;8.97;56.13;97470.78;5096696;28;19971;-72
2022/04/29 00:08:56;;;;;;;;;;;;;;;8.94;56.35;97471.94;5096690;28;20340;-74
2022/04/29 00:11:22;;;;;;;;;;;;;;;8.87;56.26;97469.22;5096358;28;19959;-74
2022/04/29 00:13:48;;;;;;;;;;;;;;;8.84;56.52;97467.00;5096463;28;20436;-73
2022/04/29 00:16:14;;;;;;;;;;;;;;;8.81;56.69;97472.56;5096353;28;19947;-74
2022/04/29 00:18:40;;;;;;;;;;;;;;;8.78;56.62;97464.25;5096459;28;19953;-72
2022/04/29 00:21:06;;;;;;;;;;;;;;;8.72;56.57;97464.00;5096297;28;20405;-74
2022/04/29 00:23:32;;;;;;;;;;;;;;;8.69;57.31;97471.41;5078036;28;19962;-74
2022/04/29 00:25:57;;;;;;;;;;;;;;;8.65;56.87;97467.50;5094763;28;20008;-72
2022/04/29 00:28:24;;;;;;;;;;;;;;;8.61;57.45;97466.25;5096009;28;20010;-73
2022/04/29 00:30:50;;;;;;;;;;;;;;;8.56;57.04;97461.56;5095955;28;20020;-73
2022/04/29 00:33:16;;;;;;;;;;;;;;;8.52;57.21;97455.91;5096123;28;19968;-73
2022/04/29 00:35:42;;;;;;;;;;;;;;;8.49;57.47;97458.06;5096048;28;19972;-73
2022/04/29 00:38:10;;;;;;;;;;;;;;;8.46;57.30;97450.56;5095870;28;20358;-73
2022/04/29 00:40:36;;;;;;;;;;;;;;;8.43;57.80;97459.56;5095838;28;19959;-73
2022/04/29 00:43:02;;;;;;;;;;;;;;;8.39;57.67;97442.59;5096143;28;19989;-74
2022/04/29 00:45:27;;;;;;;;;;;;;;;8.35;58.27;97443.94;5095881;28;19965;-73
2022/04/29 00:47:54;;;;;;;;;;;;;;;8.30;57.88;97441.88;5095928;28;19955;-74
2022/04/29 00:50:22;;;;;;;;;;;;;;;8.27;58.78;97452.69;5095859;28;19959;-74
2022/04/29 00:52:50;;;;;;;;;;;;;;;8.22;58.36;97441.94;5095781;28;20421;-74
2022/04/29 00:55:16;;;;;;;;;;;;;;;8.18;58.35;97439.88;5095445;28;20348;-74
2022/04/29 00:57:48;;;;;;;;;;;;;;;8.13;58.60;97441.22;5077700;28;20010;-74
2022/04/29 01:00:15;;;;;;;;;;;;;;;8.09;58.62;97436.53;5095656;28;19950;-74
2022/04/29 01:02:48;;;;;;;;;;;;;;;8.04;58.64;97429.22;5095393;28;20433;-74
2022/04/29 01:05:15;;;;;;;;;;;;;;;8.01;58.68;97421.72;5095565;28;19983;-74
2022/04/29 01:07:42;;;;;;;;;;;;;;;7.99;58.58;97426.31;5095467;28;19960;-74
2022/04/29 01:10:10;;;;;;;;;;;;;;;7.98;58.80;97426.50;5095353;28;19969;-75
2022/04/29 01:12:37;;;;;;;;;;;;;;;7.96;58.86;97415.41;5080397;28;19944;-74
2022/04/29 01:15:05;;;;;;;;;;;;;;;7.92;58.87;97421.00;5095357;28;19976;-74
2022/04/29 01:17:32;;;;;;;;;;;;;;;7.89;58.82;97417.91;5095367;28;19950;-73
2022/04/29 01:20:03;;;;;;;;;;;;;;;7.88;59.22;97422.34;5095090;28;19953;-74
2022/04/29 01:22:29;;;;;;;;;;;;;;;7.86;58.78;97413.06;5095204;28;19954;-73
2022/04/29 01:24:54;;;;;;;;;;;;;;;7.82;59.02;97417.81;5094454;28;19965;-74
2022/04/29 01:27:20;;;;;;;;;;;;;;;7.80;59.66;97424.22;5095037;28;19960;-74
2022/04/29 01:29:50;;;;;;;;;;;;;;;7.77;59.41;97420.16;5095002;28;19960;-74
2022/04/29 01:32:16;;;;;;;;;;;;;;;7.75;59.11;97410.84;5093663;28;19948;-73
2022/04/29 01:34:42;;;;;;;;;;;;;;;7.70;59.71;97419.22;5094652;28;19968;-74
2022/04/29 01:37:08;;;;;;;;;;;;;;;7.67;59.79;97417.78;5094637;28;20468;-73
2022/04/29 01:39:34;;;;;;;;;;;;;;;7.63;60.21;97421.72;5094334;28;19949;-73
2022/04/29 01:42:00;;;;;;;;;;;;;;;7.61;59.99;97407.22;5094654;28;20416;-73
2022/04/29 01:44:26;;;;;;;;;;;;;;;7.56;60.09;97412.13;5094575;28;19959;-73
2022/04/29 01:46:51;;;;;;;;;;;;;;;7.53;60.58;97408.88;5094824;28;20431;-73
2022/04/29 01:49:17;;;;;;;;;;;;;;;7.51;60.11;97410.06;5094628;28;19956;-73
2022/04/29 01:51:43;;;;;;;;;;;;;;;7.47;60.39;97409.59;5094689;28;19954;-71
2022/04/29 01:54:12;;;;;;;;;;;;;;;7.45;60.55;97416.78;5093545;28;20010;-73
2022/04/29 01:56:39;;;;;;;;;;;;;;;7.43;60.36;97410.13;5094455;28;19974;-74
2022/04/29 01:59:05;;;;;;;;;;;;;;;7.40;60.62;97400.84;5079284;28;19955;-73
2022/04/29 02:01:31;;;;;;;;;;;;;;;7.36;60.74;97402.19;5094432;28;19955;-73
2022/04/29 02:03:58;;;;;;;;;;;;;;;7.35;61.20;97402.34;5094143;28;20305;-73
2022/04/29 02:06:25;;;;;;;;;;;;;;;7.32;61.13;97399.09;5094131;28;19952;-72
2022/04/29 02:08:51;;;;;;;;;;;;;;;7.31;61.42;97402.69;5094646;28;20415;-77
2022/04/29 02:11:17;;;;;;;;;;;;;;;7.31;61.28;97396.69;5094493;28;20031;-73
2022/04/29 02:13:46;;;;;;;;;;;;;;;7.28;61.36;97400.41;5094087;28;19950;-72
2022/04/29 02:16:13;;;;;;;;;;;;;;;7.27;61.93;97398.81;5093965;28;19955;-72
2022/04/29 02:18:39;;;;;;;;;;;;;;;7.26;62.16;97394.56;5092997;28;20328;-72
2022/04/29 02:21:05;;;;;;;;;;;;;;;7.26;62.00;97396.38;5093975;28;19954;-72
2022/04/29 02:23:31;;;;;;;;;;;;;;;7.25;61.88;97387.75;5094158;28;19963;-72
2022/04/29 02:25:57;;;;;;;;;;;;;;;7.25;61.49;97390.34;5093309;28;20002;-73
2022/04/29 02:28:23;;;;;;;;;;;;;;;7.26;61.31;97388.53;5094026;28;19981;-73
2022/04/29 02:30:49;;;;;;;;;;;;;;;7.26;61.91;97397.16;5093747;28;19962;-73
2022/04/29 02:33:15;;;;;;;;;;;;;;;7.27;61.83;97392.78;5093943;28;20455;-72
2022/04/29 02:35:41;;;;;;;;;;;;;;;7.26;62.08;97393.75;5094057;28;19997;-72
2022/04/29 02:38:07;;;;;;;;;;;;;;;7.25;61.66;97376.50;5093824;28;19957;-73
2022/04/29 02:40:33;;;;;;;;;;;;;;;7.24;61.87;97374.84;5093935;28;20438;-72
2022/04/29 02:42:59;;;;;;;;;;;;;;;7.22;61.61;97376.81;5093600;28;20057;-73
2022/04/29 02:45:25;;;;;;;;;;;;;;;7.19;62.01;97372.78;5093383;28;19992;-72
2022/04/29 02:47:51;;;;;;;;;;;;;;;7.16;62.06;97367.91;5093928;28;20464;-72
2022/04/29 02:50:17;;;;;;;;;;;;;;;7.12;61.99;97361.41;5092633;28;19958;-72
2022/04/29 02:52:43;;;;;;;;;;;;;;;7.09;62.30;97367.78;5093671;28;20414;-72
2022/04/29 02:55:09;;;;;;;;;;;;;;;7.07;62.61;97372.34;5093448;28;20013;-73
2022/04/29 02:57:34;;;;;;;;;;;;;;;7.04;62.47;97369.28;5093651;28;19956;-73
2022/04/29 03:00:03;;;;;;;;;;;;;;;7.01;62.60;97375.66;5093587;28;19971;-74
2022/04/29 03:02:29;;;;;;;;;;;;;;;6.98;62.64;97378.59;5093687;28;20299;-73
2022/04/29 03:04:55;;;;;;;;;;;;;;;6.96;62.55;97375.34;5093493;28;20080;-73
2022/04/29 03:07:21;;;;;;;;;;;;;;;6.94;63.00;97376.53;5093459;28;19962;-72
2022/04/29 03:09:48;;;;;;;;;;;;;;;6.89;62.53;97366.63;5093790;28;20369;-72
2022/04/29 03:12:14;;;;;;;;;;;;;;;6.87;63.09;97373.78;5093440;28;20421;-73
2022/04/29 03:14:40;;;;;;;;;;;;;;;6.83;63.49;97362.09;5092779;28;20422;-73
2022/04/29 03:17:06;;;;;;;;;;;;;;;6.80;63.90;97355.38;5093925;28;20310;-72
2022/04/29 03:19:32;;;;;;;;;;;;;;;6.77;63.40;97357.53;5093030;28;19965;-71
2022/04/29 03:21:58;;;;;;;;;;;;;;;6.73;63.42;97351.84;5093380;28;19997;-72
2022/04/29 03:24:23;;;;;;;;;;;;;;;6.69;63.43;97350.56;5092867;28;19951;-72
2022/04/29 03:26:49;;;;;;;;;;;;;;;6.65;63.75;97352.69;5075020;28;20047;-72
2022/04/29 03:29:15;;;;;;;;;;;;;;;6.63;64.03;97351.25;5093914;28;20042;-71
2022/04/29 03:31:41;;;;;;;;;;;;;;;6.59;63.84;97336.94;5093827;28;19961;-72
2022/04/29 03:34:07;;;;;;;;;;;;;;;6.56;63.66;97334.69;5093187;28;19963;-72
2022/04/29 03:36:33;;;;;;;;;;;;;;;6.54;63.65;97334.03;5093303;28;19954;-71
2022/04/29 03:38:59;;;;;;;;;;;;;;;6.50;63.50;97336.97;5093338;28;19957;-71
2022/04/29 03:41:25;;;;;;;;;;;;;;;6.48;64.00;97343.34;5082289;28;20412;-72
2022/04/29 03:43:51;;;;;;;;;;;;;;;6.44;64.15;97348.06;5093120;28;20427;-72
2022/04/29 03:46:17;;;;;;;;;;;;;;;6.43;63.75;97345.66;5093301;28;19963;-72
2022/04/29 03:51:27;;;;;;;;;;;;;;;6.37;64.04;97341.91;5093145;28;19960;-72
2022/04/29 03:53:53;;;;;;;;;;;;;;;6.36;64.15;97352.50;5093282;28;19953;-72
2022/04/29 03:56:19;;;;;;;;;;;;;;;6.33;63.93;97345.84;5092776;28;20029;-73
2022/04/29 03:58:45;;;;;;;;;;;;;;;6.32;64.53;97346.84;5093100;28;19956;-73
2022/04/29 04:01:12;;;;;;;;;;;;;;;6.28;64.43;97342.94;5094183;28;19964;-72
2022/04/29 04:03:38;;;;;;;;;;;;;;;6.26;64.45;97343.09;5096463;28;19985;-72
2022/04/29 04:08:48;;;;;;;;;;;;;;;6.21;65.00;97340.16;5096560;28;19964;-72
2022/04/29 04:11:14;;;;;;;;;;;;;;;6.18;64.89;97344.94;5096509;28;19961;-72
2022/04/29 04:13:40;;;;;;;;;;;;;;;6.19;65.17;97342.13;5096613;28;19948;-72
2022/04/29 04:16:06;;;;;;;;;;;;;;;6.16;64.84;97347.69;5096386;28;20097;-72
2022/04/29 04:18:32;;;;;;;;;;;;;;;6.17;64.47;97353.69;5096555;28;20354;-73
2022/04/29 04:20:58;;;;;;;;;;;;;;;6.16;65.37;97354.69;5096322;28;20005;-73
2022/04/29 04:23:23;;;;;;;;;;;;;;;6.16;65.03;97362.50;5096256;28;19953;-72
2022/04/29 04:25:50;;;;;;;;;;;;;;;6.16;65.24;97363.31;5096059;28;19954;-72
2022/04/29 04:28:16;;;;;;;;;;;;;;;6.17;64.93;97366.72;5096129;28;20318;-72
2022/04/29 04:30:42;;;;;;;;;;;;;;;6.19;64.94;97368.19;5095059;28;19987;-71
2022/04/29 04:33:08;;;;;;;;;;;;;;;6.20;65.41;97369.81;5078047;28;20049;-72
2022/04/29 04:35:34;;;;;;;;;;;;;;;6.23;65.06;97371.28;5096079;28;19964;-72
2022/04/29 04:38:00;;;;;;;;;;;;;;;6.26;64.42;97363.13;5095912;28;20052;-73
2022/04/29 04:40:25;;;;;;;;;;;;;;;6.29;64.85;97362.78;5096103;28;19952;-72
2022/04/29 04:42:52;;;;;;;;;;;;;;;6.32;65.24;97367.69;5095946;28;19966;-73
2022/04/29 04:45:18;;;;;;;;;;;;;;;6.36;65.33;97379.34;5079592;28;20415;-72
2022/04/29 04:47:44;;;;;;;;;;;;;;;6.42;64.89;97373.47;5095796;28;19967;-72
2022/04/29 04:50:11;;;;;;;;;;;;;;;6.47;65.20;97370.38;5095536;28;20409;-72
2022/04/29 04:52:39;;;;;;;;;;;;;;;6.59;65.77;97378.63;5095989;28;20290;-72
2022/04/29 04:55:05;;;;;;;;;;;;;;;6.73;65.30;97364.09;5095544;28;19976;-73
2022/04/29 04:57:31;;;;;;;;;;;;;;;7.01;64.67;97357.38;5095830;28;19974;-73
2022/04/29 04:59:58;;;;;;;;;;;;;;;7.39;64.61;97356.66;5095699;28;19954;-72
2022/04/29 05:02:24;;;;;;;;;;;;;;;7.81;63.44;97350.09;5095534;28;19963;-72
2022/04/29 05:04:49;;;;;;;;;;;;;;;8.11;62.76;97346.53;5090894;28;19977;-72
2022/04/29 05:07:15;;;;;;;;;;;;;;;8.34;61.90;97341.22;5075067;28;20057;-73
2022/04/29 05:09:41;;;;;;;;;;;;;;;8.47;61.46;97337.97;5075009;28;19985;-73
2022/04/29 05:12:07;;;;;;;;;;;;;;;8.61;61.43;97346.81;5074486;28;20053;-73
2022/04/29 05:14:34;;;;;;;;;;;;;;;8.77;60.80;97342.34;5074141;28;19961;-72
2022/04/29 05:17:00;;;;;;;;;;;;;;;8.83;59.86;97334.56;5075023;28;19953;-73
2022/04/29 05:19:26;;;;;;;;;;;;;;;8.90;59.96;97345.09;5074789;28;19994;-72
2022/04/29 05:21:52;;;;;;;;;;;;;;;8.94;60.08;97354.19;5074950;28;20040;-72
2022/04/29 05:24:18;;;;;;;;;;;;;;;8.94;59.45;97355.03;5074969;28;20011;-71
2022/04/29 05:26:44;;;;;;;;;;;;;;;8.89;60.01;97359.19;5075054;28;20054;-72
2022/04/29 05:29:10;;;;;;;;;;;;;;;8.83;60.05;97358.09;5074673;28;19960;-73
2022/04/29 05:31:35;;;;;;;;;;;;;;;8.74;60.33;97372.31;5074658;28;19978;-73
2022/04/29 05:34:05;;;;;;;;;;;;;;;8.66;60.14;97362.75;5074036;28;19955;-73
2022/04/29 05:36:31;;;;;;;;;;;;;;;8.64;60.21;97363.94;5074589;28;19966;-73
2022/04/29 05:44:25;;;;;;;;;;;;;;;8.81;60.14;97357.47;5074365;28;19951;-73
2022/04/29 05:46:51;;;;;;;;;;;;;;;9.16;59.55;97354.25;5072968;28;20469;-73
2022/04/29 05:49:17;;;;;;;;;;;;;;;9.51;59.31;97347.28;5074308;28;20011;-72
2022/04/29 05:51:43;;;;;;;;;;;;;;;9.76;58.45;97342.47;5074447;28;19951;-72
2022/04/29 05:54:09;;;;;;;;;;;;;;;9.93;58.15;97343.81;5074116;28;19952;-73
2022/04/29 05:56:35;;;;;;;;;;;;;;;10.12;57.37;97337.06;5074082;28;19984;-73
2022/04/29 05:59:01;;;;;;;;;;;;;;;10.22;57.10;97341.16;5073729;28;19961;-73
2022/04/29 06:01:26;;;;;;;;;;;;;;;10.31;57.04;97335.59;5074052;28;20005;-73
2022/04/29 06:03:52;;;;;;;;;;;;;;;10.30;56.92;97341.81;5082748;28;20043;-73
2022/04/29 06:06:18;;;;;;;;;;;;;;;10.28;57.76;97343.81;5076047;28;19965;-73
2022/04/29 06:08:44;;;;;;;;;;;;;;;10.42;57.15;97336.06;5094515;28;20441;-73
2022/04/29 06:11:10;;;;;;;;;;;;;;;10.63;57.15;97335.13;5094123;28;19983;-73
2022/04/29 06:13:37;;;;;;;;;;;;;;;10.74;56.68;97334.56;5094118;28;19963;-73
2022/04/29 06:16:06;;;;;;;;;;;;;;;10.79;57.76;97345.25;5094612;28;19978;-74
2022/04/29 06:18:32;;;;;;;;;;;;;;;10.86;56.54;97340.84;5094229;28;19963;-72
2022/04/29 06:20:58;;;;;;;;;;;;;;;10.91;56.21;97338.44;5094004;28;20019;-73
2022/04/29 06:23:24;;;;;;;;;;;;;;;11.04;56.17;97335.03;5093294;28;19948;-77
2022/04/29 06:25:52;;;;;;;;;;;;;;;11.16;56.36;97335.28;5094302;28;19967;-73
2022/04/29 06:28:18;;;;;;;;;;;;;;;11.41;56.28;97338.13;5075712;28;19959;-73
2022/04/29 06:30:43;;;;;;;;;;;;;;;11.71;56.14;97338.53;5094263;28;20415;-73
2022/04/29 06:33:09;;;;;;;;;;;;;;;11.92;55.31;97329.66;5075725;28;20006;-73
2022/04/29 06:35:37;;;;;;;;;;;;;;;12.00;54.82;97328.63;5093954;28;19978;-73
2022/04/29 06:38:03;;;;;;;;;;;;;;;12.16;54.97;97336.09;5093783;28;19956;-73
2022/04/29 06:40:29;;;;;;;;;;;;;;;12.29;54.67;97329.19;5093939;28;20000;-74
2022/04/29 06:42:55;;;;;;;;;;;;;;;12.47;53.71;97325.88;5093653;28;19960;-73
2022/04/29 06:45:21;;;;;;;;;;;;;;;12.42;53.46;97331.78;5094422;28;19959;-73
2022/04/29 06:47:47;;;;;;;;;;;;;;;12.24;53.66;97335.06;5093958;28;19956;-76
2022/04/29 06:50:13;;;;;;;;;;;;;;;11.92;55.66;97348.06;5093672;28;19963;-73
2022/04/29 06:52:38;;;;;;;;;;;;;;;11.79;57.40;97358.56;5093772;28;19979;-73
2022/04/29 06:55:05;;;;;;;;;;;;;;;11.97;58.77;97368.50;5075742;28;20474;-73
2022/04/29 06:57:31;;;;;;;;;;;;;;;12.32;58.81;97371.66;5093528;28;19953;-77
2022/04/29 06:59:57;;;;;;;;;;;;;;;12.77;56.28;97348.03;5092908;28;20004;-73
2022/04/29 07:02:29;;;;;;;;;;;;;;;13.08;55.34;97338.56;5075184;28;19950;-73
2022/04/29 07:04:55;;;;;;;;;;;;;;;13.23;54.44;97319.84;5093254;28;19984;-73
2022/04/29 07:07:21;;;;;;;;;;;;;;;13.27;53.75;97317.56;5093476;28;20414;-74
2022/04/29 07:09:47;;;;;;;;;;;;;;;13.21;54.22;97319.25;5093422;28;20423;-74
2022/04/29 07:12:13;;;;;;;;;;;;;;;13.20;53.98;97318.41;5093662;28;20418;-74
2022/04/29 07:14:39;;;;;;;;;;;;;;;13.26;53.57;97315.97;5094231;28;19959;-74
2022/04/29 07:17:08;;;;;;;;;;;;;;;13.35;55.30;97333.16;5093393;28;20443;-73
2022/04/29 07:19:36;;;;;;;;;;;;;;;13.50;53.62;97315.22;5093477;28;20426;-74
2022/04/29 07:22:05;;;;;;;;;;;;;;;13.60;54.00;97312.09;5093508;28;19957;-73
2022/04/29 07:24:31;;;;;;;;;;;;;;;13.84;53.44;97307.00;5093329;28;19956;-74
2022/04/29 07:26:57;;;;;;;;;;;;;;;13.91;53.77;97316.47;5093561;28;20294;-73
2022/04/29 07:29:23;;;;;;;;;;;;;;;13.86;53.68;97308.41;5093279;28;19953;-74
2022/04/29 07:31:49;;;;;;;;;;;;;;;13.92;53.69;97307.56;5075687;28;19966;-74
2022/04/29 07:34:15;;;;;;;;;;;;;;;14.07;53.27;97301.94;5093302;28;20014;-74
2022/04/29 07:42:30;;;;;;;;;;;;;;;13.89;52.79;97294.78;5081356;28;19970;-74
2022/04/29 07:44:56;;;;;;;;;;;;;;;13.88;53.67;97301.09;5097182;28;19952;-74
2022/04/29 07:47:22;;;;;;;;;;;;;;;14.03;53.20;97292.84;5096752;28;20443;-75
2022/04/29 07:49:48;;;;;;;;;;;;;;;14.14;53.09;97291.31;5097024;28;19991;-74
2022/04/29 07:52:14;;;;;;;;;;;;;;;14.32;52.98;97301.03;5096611;28;19949;-74
2022/04/29 07:54:40;;;;;;;;;;;;;;;14.60;51.66;97285.50;5096764;28;19970;-73
2022/04/29 07:57:06;;;;;;;;;;;;;;;15.02;51.48;97287.38;5096845;28;19983;-73
2022/04/29 07:59:32;;;;;;;;;;;;;;;15.50;51.36;97296.22;5096718;28;19951;-74
2022/04/29 08:01:58;;;;;;;;;;;;;;;15.89;49.51;97281.53;5096732;28;20511;-74
2022/04/29 08:04:24;;;;;;;;;;;;;;;16.14;46.07;97278.63;5096830;28;19983;-74
2022/04/29 08:06:50;;;;;;;;;;;;;;;16.34;44.83;97272.16;5096983;28;19958;-74
2022/04/29 08:09:16;;;;;;;;;;;;;;;16.24;45.44;97288.63;5096742;28;19973;-73
2022/04/29 08:11:42;;;;;;;;;;;;;;;16.13;44.03;97278.88;5078276;28;19959;-74
2022/04/29 08:14:07;;;;;;;;;;;;;;;15.96;43.91;97292.00;5097031;28;19984;-74
2022/04/29 08:16:34;;;;;;;;;;;;;;;15.76;45.12;97303.72;5096299;28;20467;-74
2022/04/29 08:19:01;;;;;;;;;;;;;;;15.76;47.35;97308.22;5095343;28;19967;-74
2022/04/29 08:21:47;;;;;;;;;;;;;;;15.61;42.47;97292.78;5087247;28;19968;-74
2022/04/29 08:24:14;;;;;;;;;;;;;;;15.33;43.80;97304.81;5096632;28;19958;-74
2022/04/29 08:26:40;;;;;;;;;;;;;;;15.38;43.45;97304.94;5097479;28;20327;-74
2022/04/29 08:29:06;;;;;;;;;;;;;;;15.47;41.32;97294.03;5096323;28;20410;-74
2022/04/29 08:31:32;;;;;;;;;;;;;;;15.51;41.21;97289.91;5095737;28;19963;-74
2022/04/29 08:33:58;;;;;;;;;;;;;;;15.49;42.74;97292.75;5095086;28;20456;-74
2022/04/29 08:36:24;;;;;;;;;;;;;;;15.49;42.16;97291.97;5077983;28;19964;-74
2022/04/29 08:38:51;;;;;;;;;;;;;;;15.56;43.46;97297.94;5096406;28;19959;-74
2022/04/29 08:41:19;;;;;;;;;;;;;;;15.72;43.14;97297.28;5096334;28;20293;-74
2022/04/29 08:43:45;;;;;;;;;;;;;;;15.96;43.08;97292.81;5096120;28;19952;-74
2022/04/29 08:46:11;;;;;;;;;;;;;;;16.22;42.99;97288.06;5095993;28;19971;-74
2022/04/29 08:48:37;;;;;;;;;;;;;;;16.53;41.98;97286.84;5095756;28;19976;-74
2022/04/29 08:51:03;;;;;;;;;;;;;;;16.75;40.20;97288.81;5094692;28;20048;-74
2022/04/29 08:53:29;;;;;;;;;;;;;;;16.98;43.50;97283.44;5095706;28;19958;-74
2022/04/29 08:58:40;;;;;;;;;;;;;;;17.59;41.24;97275.69;5084437;28;20336;-74
2022/04/29 09:01:08;;;;;;;;;;;;;;;17.73;39.52;97262.13;5095867;28;19959;-74
2022/04/29 09:03:34;;;;;;;;;;;;;;;17.79;36.27;97261.16;5095897;28;19982;-74
2022/04/29 09:06:01;;;;;;;;;;;;;;;17.83;37.26;97257.78;5095390;28;19957;-74
2022/04/29 09:08:27;;;;;;;;;;;;;;;17.73;36.14;97252.31;5095495;28;20315;-74
2022/04/29 09:10:54;;;;;;;;;;;;;;;17.65;33.56;97253.50;5095295;28;20409;-74
2022/04/29 09:13:24;;;;;;;;;;;;;;;17.64;37.62;97275.78;5095371;28;19952;-74
2022/04/29 09:15:54;;;;;;;;;;;;;;;17.79;39.73;97274.41;5095421;28;19977;-74
2022/04/29 09:18:27;;;;;;;;;;;;;;;17.95;34.63;97257.66;5079820;28;19942;-74
2022/04/29 09:20:53;;;;;;;;;;;;;;;17.75;34.98;97260.03;5095348;28;19965;-74
2022/04/29 09:23:29;;;;;;;;;;;;;;;17.71;34.26;97250.94;5095018;28;20318;-74
2022/04/29 09:25:56;;;;;;;;;;;;;;;17.79;37.99;97261.16;5095173;28;20348;-74
2022/04/29 09:28:23;;;;;;;;;;;;;;;17.75;36.00;97254.72;5094933;28;19953;-74
2022/04/29 09:30:53;;;;;;;;;;;;;;;17.55;33.26;97252.56;5095250;28;19961;-74
2022/04/29 09:33:20;;;;;;;;;;;;;;;17.49;36.72;97256.19;5076786;28;19962;-75
2022/04/29 09:35:46;;;;;;;;;;;;;;;17.48;34.61;97247.44;5082774;28;19965;-74
2022/04/29 09:40:58;;;;;;;;;;;;;;;17.14;34.45;97255.38;5095343;28;19948;-74
2022/04/29 09:43:33;;;;;;;;;;;;;;;16.96;34.14;97248.44;5094805;28;19974;-74
2022/04/29 09:46:08;;;;;;;;;;;;;;;16.78;34.96;97253.94;5094110;28;19954;-74
2022/04/29 09:48:49;;;;;;;;;;;;;;;16.78;34.91;97254.72;5094857;28;19953;-74
2022/04/29 09:51:15;;;;;;;;;;;;;;;16.91;34.57;97234.31;5086818;28;19954;-74
2022/04/29 09:53:41;;;;;;;;;;;;;;;16.93;35.60;97246.28;5094647;28;19957;-74
2022/04/29 09:56:08;;;;;;;;;;;;;;;16.95;35.22;97238.91;5076609;28;19962;-74
2022/04/29 09:58:34;;;;;;;;;;;;;;;17.07;36.08;97249.41;5093900;28;19958;-74
2022/04/29 10:01:02;;;;;;;;;;;;;;;17.10;33.69;97238.34;5094867;28;19956;-74
2022/04/29 10:03:28;;;;;;;;;;;;;;;17.10;33.89;97230.41;5075920;28;20372;-74
2022/04/29 10:05:55;;;;;;;;;;;;;;;17.18;34.57;97231.84;5094313;28;19962;-74
2022/04/29 10:08:24;;;;;;;;;;;;;;;17.31;36.29;97228.88;5094247;28;19954;-75
2022/04/29 10:10:51;;;;;;;;;;;;;;;17.45;35.46;97224.84;5094382;28;20329;-74
2022/04/29 10:13:18;;;;;;;;;;;;;;;17.54;34.00;97224.44;5094272;28;19949;-74
2022/04/29 10:15:46;;;;;;;;;;;;;;;17.58;33.54;97220.25;5094204;28;19955;-74
2022/04/29 10:21:17;;;;;;;;;;;;;;;17.53;33.70;97228.13;5094200;28;19946;-74
2022/04/29 10:23:50;;;;;;;;;;;;;;;17.49;32.06;97211.91;5093991;28;20429;-75
2022/04/29 10:26:16;;;;;;;;;;;;;;;17.50;32.79;97205.56;5094693;28;20326;-74
2022/04/29 10:28:43;;;;;;;;;;;;;;;17.54;34.03;97216.50;5094006;28;19970;-74
2022/04/29 10:31:15;;;;;;;;;;;;;;;17.55;34.68;97226.84;5093666;28;19962;-74
2022/04/29 10:33:41;;;;;;;;;;;;;;;17.62;33.18;97211.56;5093982;28;20414;-74
2022/04/29 10:36:07;;;;;;;;;;;;;;;17.72;34.79;97224.16;5093914;28;20480;-74
2022/04/29 10:38:34;;;;;;;;;;;;;;;17.54;31.44;97214.63;5093837;28;19950;-74
2022/04/29 10:41:06;;;;;;;;;;;;;;;17.54;33.45;97217.28;5093974;28;20299;-74
2022/04/29 10:43:35;;;;;;;;;;;;;;;17.55;33.17;97216.22;5094239;28;19949;-74
2022/04/29 10:46:04;;;;;;;;;;;;;;;17.77;34.22;97215.47;5092493;28;19960;-74
2022/04/29 10:48:31;;;;;;;;;;;;;;;17.89;32.98;97207.41;5093501;28;19953;-75
2022/04/29 10:50:57;;;;;;;;;;;;;;;17.90;32.57;97209.84;5093588;28;20441;-75
2022/04/29 10:53:24;;;;;;;;;;;;;;;17.91;31.76;97203.50;5094179;28;19948;-74
2022/04/29 10:55:50;;;;;;;;;;;;;;;18.01;31.65;97211.56;5093724;28;19963;-74
2022/04/29 10:58:22;;;;;;;;;;;;;;;18.14;31.52;97198.97;5093701;28;20030;-74
2022/04/29 11:00:55;;;;;;;;;;;;;;;18.32;32.02;97192.56;5093832;28;19956;-74
2022/04/29 11:03:41;;;;;;;;;;;;;;;18.41;31.38;97186.53;5093361;28;20371;-74
2022/04/29 11:06:08;;;;;;;;;;;;;;;18.58;32.14;97190.94;5093557;28;19958;-72
2022/04/29 11:08:34;;;;;;;;;;;;;;;18.71;31.05;97193.22;5093822;28;19958;-74
2022/04/29 11:11:00;;;;;;;;;;;;;;;18.84;32.13;97189.38;5094509;28;19950;-74
2022/04/29 11:13:27;;;;;;;;;;;;;;;18.87;30.84;97180.88;5079581;28;19997;-74
2022/04/29 11:15:52;;;;;;;;;;;;;;;18.83;31.57;97175.28;5097434;28;19959;-74
2022/04/29 11:18:22;;;;;;;;;;;;;;;18.78;30.48;97177.91;5097483;28;19957;-74
2022/04/29 11:20:59;;;;;;;;;;;;;;;18.69;30.83;97178.56;5097884;28;19970;-74
2022/04/29 11:26:10;;;;;;;;;;;;;;;18.62;31.10;97178.78;5097791;28;19952;-74
2022/04/29 11:28:36;;;;;;;;;;;;;;;18.74;30.07;97168.78;5097422;28;20424;-74
2022/04/29 11:31:03;;;;;;;;;;;;;;;18.71;31.63;97173.81;5097294;28;20407;-74
2022/04/29 11:33:29;;;;;;;;;;;;;;;18.64;30.16;97168.69;5097484;28;19951;-74
2022/04/29 11:36:06;;;;;;;;;;;;;;;18.74;31.87;97168.00;5097124;28;19948;-74
2022/04/29 11:38:39;;;;;;;;;;;;;;;18.92;32.40;97172.97;5097273;28;20410;-74
2022/04/29 11:41:05;;;;;;;;;;;;;;;18.95;29.99;97175.13;5097228;28;19958;-73
2022/04/29 11:43:31;;;;;;;;;;;;;;;19.06;31.42;97162.69;5096895;28;20043;-73
2022/04/29 11:46:05;;;;;;;;;;;;;;;19.07;28.08;97161.66;5097123;28;20043;-74
2022/04/29 11:48:34;;;;;;;;;;;;;;;18.95;29.19;97166.34;5097061;28;19962;-73
2022/04/29 11:51:01;;;;;;;;;;;;;;;18.76;27.54;97149.94;5097043;28;19960;-74
2022/04/29 11:53:27;;;;;;;;;;;;;;;18.66;29.95;97153.31;5096837;28;19948;-74
2022/04/29 11:55:53;;;;;;;;;;;;;;;18.75;30.00;97151.81;5096897;28;19961;-74
2022/04/29 11:58:19;;;;;;;;;;;;;;;18.66;28.58;97142.69;5095460;28;19967;-73
2022/04/29 12:00:54;;;;;;;;;;;;;;;18.72;29.12;97151.50;5096758;28;20319;-74
2022/04/29 12:03:21;;;;;;;;;;;;;;;18.77;29.65;97160.34;5096366;28;20440;-74
2022/04/29 12:05:47;;;;;;;;;;;;;;;18.85;30.69;97159.88;5095297;28;19979;-74
2022/04/29 12:08:13;;;;;;;;;;;;;;;19.04;29.32;97149.66;5096069;28;19965;-74
2022/04/29 12:10:41;;;;;;;;;;;;;;;19.32;29.11;97154.88;5095458;28;20384;-73
2022/04/29 12:13:07;;;;;;;;;;;;;;;19.57;28.17;97141.75;5095288;28;19958;-74
2022/04/29 12:15:35;;;;;;;;;;;;;;;19.57;30.12;97141.75;5077393;28;20013;-74
2022/04/29 12:18:08;;;;;;;;;;;;;;;19.60;29.46;97141.22;5095188;28;19979;-74
2022/04/29 12:20:34;;;;;;;;;;;;;;;19.72;30.10;97133.09;5095568;28;19958;-74
2022/04/29 12:23:14;;;;;;;;;;;;;;;19.85;28.22;97139.78;5094887;28;19958;-74
2022/04/29 12:25:45;;;;;;;;;;;;;;;19.60;29.33;97130.59;5095368;28;19976;-74
2022/04/29 12:28:29;;;;;;;;;;;;;;;19.47;30.48;97123.88;5095425;28;19967;-74
2022/04/29 12:36:31;;;;;;;;;;;;;;;19.41;29.12;97121.44;5094913;28;19969;-73
2022/04/29 12:39:04;;;;;;;;;;;;;;;19.29;28.25;97115.53;5095092;28;20332;-74
2022/04/29 12:41:30;;;;;;;;;;;;;;;19.27;27.97;97116.56;5094264;28;19949;-74
2022/04/29 12:44:06;;;;;;;;;;;;;;;19.27;28.35;97121.09;5094596;28;19954;-74
2022/04/29 12:46:32;;;;;;;;;;;;;;;19.34;28.88;97112.88;5093628;28;19955;-73
2022/04/29 12:48:57;;;;;;;;;;;;;;;19.40;29.29;97109.19;5094809;28;20323;-74
2022/04/29 12:51:24;;;;;;;;;;;;;;;19.40;27.75;97101.22;5094846;28;19999;-74
2022/04/29 12:53:50;;;;;;;;;;;;;;;19.46;27.77;97097.53;5094615;28;19956;-74
2022/04/29 12:56:23;;;;;;;;;;;;;;;19.57;27.88;97101.84;5094919;28;19969;-74
2022/04/29 12:58:49;;;;;;;;;;;;;;;19.62;28.28;97104.53;5094632;28;19963;-73
2022/04/29 13:01:15;;;;;;;;;;;;;;;19.83;29.54;97101.97;5094703;28;20020;-74
2022/04/29 13:03:47;;;;;;;;;;;;;;;20.06;29.14;97095.41;5030373;28;1816415;-74
2022/04/29 13:06:13;;;;;;;;;;;;;;;20.21;28.78;97102.63;5095723;28;19963;-74
2022/04/29 13:08:39;;;;;;;;;;;;;;;20.21;29.37;97100.75;5095344;28;20320;-73
2022/04/29 13:11:25;;;;;;;;;;;;;;;20.24;28.94;97102.06;5070293;28;19958;-73
2022/04/29 13:13:52;;;;;;;;;;;;;;;20.21;29.41;97091.97;5095373;28;19967;-74
2022/04/29 13:16:19;;;;;;;;;;;;;;;20.23;28.53;97079.97;5095138;28;19953;-75
2022/04/29 13:18:45;;;;;;;;;;;;;;;20.24;29.27;97089.56;5094985;28;19948;-74
2022/04/29 13:21:12;;;;;;;;;;;;;;;20.46;29.21;97078.66;5095277;28;19959;-73
2022/04/29 13:23:39;;;;;;;;;;;;;;;20.69;29.75;97068.56;5095689;28;19965;-74